createdAt,value
2022-11-08T00:00:20.231Z,75.25
2022-11-08T00:02:47.477Z,73.84
2022-11-08T00:05:33.115Z,78.00
2022-11-08T00:08:22.608Z,73.54
2022-11-08T00:11:08.039Z,75.32
2022-11-08T00:13:53.604Z,77.55
2022-11-08T00:16:23.325Z,73.85
2022-11-08T00:18:50.208Z,74.41
2022-11-08T00:21:17.277Z,72.16
2022-11-08T00:23:44.777Z,72.26
2022-11-08T00:26:11.870Z,72.22
2022-11-08T00:28:39.025Z,73.83
2022-11-08T00:31:06.709Z,73.25
2022-11-08T00:33:34.414Z,73.79
2022-11-08T00:36:02.658Z,73.71
2022-11-08T00:38:29.595Z,73.71
2022-11-08T00:40:56.738Z,74.83
2022-11-08T00:43:23.798Z,77.76
2022-11-08T00:45:50.740Z,77.25
2022-11-08T00:48:19.222Z,73.00
2022-11-08T00:50:46.562Z,78.54
2022-11-08T00:53:13.619Z,76.86
2022-11-08T00:55:40.684Z,74.19
2022-11-08T00:58:07.840Z,77.47
2022-11-08T01:00:34.810Z,75.95
2022-11-08T01:03:19.974Z,74.00
2022-11-08T01:05:48.575Z,77.86
2022-11-08T01:08:17.368Z,74.66
2022-11-08T01:10:52.015Z,73.41
2022-11-08T01:13:20.352Z,76.82
2022-11-08T01:15:47.873Z,77.19
2022-11-08T01:18:17.072Z,75.28
2022-11-08T01:20:46.885Z,76.20
2022-11-08T01:23:15.707Z,77.11
2022-11-08T01:25:46.519Z,77.96
2022-11-08T01:28:13.699Z,77.67
2022-11-08T01:30:43.468Z,77.87
2022-11-08T01:33:11.399Z,78.14
2022-11-08T01:35:39.082Z,76.81
2022-11-08T01:38:07.259Z,75.78
2022-11-08T01:40:34.885Z,76.48
2022-11-08T01:43:30.753Z,74.90
2022-11-08T01:46:10.307Z,73.20
2022-11-08T01:48:43.423Z,74.66
2022-11-08T01:51:14.939Z,74.55
2022-11-08T01:53:42.279Z,74.83
2022-11-08T01:56:11.031Z,75.43
2022-11-08T01:58:40.731Z,74.33
2022-11-08T02:01:08.409Z,73.98
2022-11-08T02:03:36.340Z,74.25
2022-11-08T02:06:04.363Z,75.33
2022-11-08T02:08:41.036Z,74.03
2022-11-08T02:11:13.082Z,73.18
2022-11-08T02:13:41.329Z,73.02
2022-11-08T02:16:14.903Z,73.86
2022-11-08T02:18:44.347Z,76.59
2022-11-08T02:21:45.068Z,78.01
2022-11-08T02:24:14.975Z,74.46
2022-11-08T02:26:43.910Z,77.08
2022-11-08T02:29:33.754Z,77.38
2022-11-08T02:32:02.483Z,79.61
2022-11-08T02:34:42.252Z,77.72
2022-11-08T02:37:09.863Z,75.48
2022-11-08T02:39:36.989Z,76.23
2022-11-08T02:42:04.170Z,77.55
2022-11-08T02:44:31.408Z,76.84
2022-11-08T02:46:58.453Z,77.54
2022-11-08T02:49:26.923Z,79.61
2022-11-08T02:51:54.382Z,80.80
2022-11-08T02:54:21.644Z,79.80
2022-11-08T02:56:48.899Z,76.57
2022-11-08T02:59:15.997Z,76.21
2022-11-08T03:01:43.628Z,75.48
2022-11-08T03:04:11.933Z,76.84
2022-11-08T03:06:39.197Z,77.41
2022-11-08T03:09:06.520Z,78.17
2022-11-08T03:11:33.779Z,79.07
2022-11-08T03:14:00.948Z,78.13
2022-11-08T03:16:28.221Z,78.00
2022-11-08T03:18:55.200Z,77.51
2022-11-08T03:21:22.282Z,76.77
2022-11-08T03:23:49.552Z,78.58
2022-11-08T03:26:16.554Z,79.06
2022-11-08T03:28:43.769Z,76.66
2022-11-08T03:31:11.130Z,75.86
2022-11-08T03:33:38.147Z,77.99
2022-11-08T03:36:05.622Z,76.74
2022-11-08T03:38:32.534Z,78.27
2022-11-08T03:40:59.719Z,76.85
2022-11-08T03:43:27.508Z,79.36
2022-11-08T03:45:54.628Z,77.38
2022-11-08T03:48:23.672Z,76.78
2022-11-08T03:50:51.919Z,80.22
2022-11-08T03:53:19.230Z,77.83
2022-11-08T03:55:46.228Z,77.30
2022-11-08T03:58:13.629Z,78.86
2022-11-08T04:00:41.658Z,75.38
2022-11-08T04:03:10.028Z,74.27
2022-11-08T04:05:37.314Z,75.16
2022-11-08T04:08:06.102Z,79.37
2022-11-08T04:10:33.299Z,76.19
2022-11-08T04:13:20.060Z,75.86
2022-11-08T04:15:57.849Z,78.56
2022-11-08T04:18:46.388Z,77.18
2022-11-08T04:21:19.069Z,75.21
2022-11-08T04:23:51.548Z,79.51
2022-11-08T04:26:20.029Z,80.54
2022-11-08T04:28:47.303Z,76.94
2022-11-08T04:31:18.562Z,74.21
2022-11-08T04:33:46.182Z,74.25
2022-11-08T04:36:16.486Z,78.35
2022-11-08T04:38:45.162Z,77.10
2022-11-08T04:41:14.638Z,77.48
2022-11-08T04:43:42.325Z,80.37
2022-11-08T04:46:19.236Z,77.75
2022-11-08T04:48:47.013Z,75.48
2022-11-08T04:51:21.915Z,79.22
2022-11-08T04:53:49.900Z,76.69
2022-11-08T04:56:19.968Z,76.20
2022-11-08T04:58:59.608Z,75.98
2022-11-08T05:01:31.124Z,76.10
2022-11-08T05:03:59.091Z,74.99
2022-11-08T05:06:31.256Z,74.42
2022-11-08T05:08:59.743Z,74.96
2022-11-08T05:11:29.183Z,73.45
2022-11-08T05:13:57.572Z,77.13
2022-11-08T05:16:31.805Z,76.08
2022-11-08T05:19:01.089Z,76.40
2022-11-08T05:21:46.552Z,74.22
2022-11-08T05:24:17.891Z,75.87
2022-11-08T05:26:48.123Z,76.29
2022-11-08T05:29:17.636Z,76.49
2022-11-08T05:31:44.717Z,74.42
2022-11-08T05:34:12.062Z,75.42
2022-11-08T05:36:39.228Z,78.58
2022-11-08T05:39:07.359Z,77.53
2022-11-08T05:41:34.346Z,75.97
2022-11-08T05:44:01.668Z,76.85
2022-11-08T05:46:28.950Z,75.78
2022-11-08T05:48:56.371Z,75.16
2022-11-08T05:51:23.539Z,76.58
2022-11-08T05:53:50.817Z,78.11
2022-11-08T05:56:18.505Z,79.01
2022-11-08T05:58:45.747Z,76.66
2022-11-08T06:01:16.657Z,77.46
2022-11-08T06:03:43.738Z,77.13
2022-11-08T06:06:17.549Z,76.54
2022-11-08T06:09:06.829Z,77.88
2022-11-08T06:11:33.836Z,78.71
2022-11-08T06:14:00.948Z,78.65
2022-11-08T06:16:27.971Z,78.34
2022-11-08T06:18:56.221Z,77.70
2022-11-08T06:21:24.581Z,78.12
2022-11-08T06:23:54.673Z,77.87
2022-11-08T06:26:24.127Z,77.15
2022-11-08T06:28:52.139Z,77.43
2022-11-08T06:31:19.424Z,78.29
2022-11-08T06:33:46.929Z,78.12
2022-11-08T06:36:14.047Z,78.22
2022-11-08T06:38:41.523Z,78.32
2022-11-08T06:41:14.379Z,80.26
2022-11-08T06:43:41.341Z,80.01
2022-11-08T06:46:08.528Z,78.60
2022-11-08T06:48:36.326Z,77.56
2022-11-08T06:51:04.565Z,78.40
2022-11-08T06:53:32.669Z,79.38
2022-11-08T06:56:01.101Z,79.63
2022-11-08T06:58:29.243Z,80.69
2022-11-08T07:00:56.433Z,78.77
2022-11-08T07:03:25.403Z,78.15
2022-11-08T07:05:52.831Z,77.28
2022-11-08T07:08:23.543Z,77.99
2022-11-08T07:10:51.925Z,78.15
2022-11-08T07:13:19.164Z,79.83
2022-11-08T07:15:48.104Z,77.93
2022-11-08T07:18:17.748Z,77.48
2022-11-08T07:20:46.300Z,77.35
2022-11-08T07:23:13.930Z,76.60
2022-11-08T07:25:41.888Z,79.54
2022-11-08T07:28:16.921Z,78.27
2022-11-08T07:30:45.887Z,78.34
2022-11-08T07:33:13.882Z,78.27
2022-11-08T07:35:41.629Z,78.05
2022-11-08T07:38:08.649Z,78.78
2022-11-08T07:40:35.816Z,80.45
2022-11-08T07:43:12.198Z,81.40
2022-11-08T07:45:41.316Z,79.37
2022-11-08T07:48:13.053Z,79.30
2022-11-08T07:51:02.984Z,78.93
2022-11-08T07:53:33.148Z,81.33
2022-11-08T07:56:00.557Z,80.97
2022-11-08T07:58:27.559Z,81.18
2022-11-08T08:01:03.725Z,81.00
2022-11-08T08:03:31.249Z,79.71
2022-11-08T08:06:01.317Z,77.47
2022-11-08T08:08:29.780Z,78.06
2022-11-08T08:11:02.087Z,80.58
2022-11-08T08:13:29.509Z,78.14
2022-11-08T08:16:01.427Z,81.12
2022-11-08T08:18:30.321Z,79.40
2022-11-08T08:20:57.840Z,80.92
2022-11-08T08:23:24.871Z,80.59
2022-11-08T08:25:53.057Z,80.48
2022-11-08T08:28:20.056Z,79.67
2022-11-08T08:30:47.400Z,77.86
2022-11-08T08:33:32.939Z,76.88
2022-11-08T08:36:02.122Z,76.79
2022-11-08T08:38:30.676Z,75.74
2022-11-08T08:40:59.267Z,77.17
2022-11-08T08:43:29.630Z,77.05
2022-11-08T08:46:05.748Z,76.80
2022-11-08T08:48:33.601Z,79.67
2022-11-08T08:51:01.195Z,79.14
2022-11-08T08:53:28.220Z,77.79
2022-11-08T08:55:55.696Z,78.47
2022-11-08T08:58:22.771Z,76.45
2022-11-08T09:03:37.402Z,76.77
2022-11-08T09:06:05.095Z,77.26
2022-11-08T09:08:32.091Z,77.26
2022-11-08T09:11:01.705Z,77.11
2022-11-08T09:13:32.962Z,77.43
2022-11-08T09:16:02.948Z,77.73
2022-11-08T09:18:30.850Z,78.66
2022-11-08T09:20:59.240Z,76.60
2022-11-08T09:23:26.606Z,77.17
2022-11-08T09:26:00.191Z,75.64
2022-11-08T09:28:31.521Z,77.29
2022-11-08T09:31:12.064Z,76.51
2022-11-08T09:33:40.629Z,76.57
2022-11-08T09:36:12.208Z,76.78
2022-11-08T09:38:39.194Z,76.22
2022-11-08T09:41:25.977Z,75.45
2022-11-08T09:44:36.245Z,74.96
2022-11-08T09:47:28.089Z,73.86
2022-11-08T09:50:33.114Z,71.75
2022-11-08T09:53:35.192Z,71.30
2022-11-08T09:56:21.555Z,70.43
2022-11-08T09:59:02.399Z,71.08
2022-11-08T10:01:35.839Z,71.73
2022-11-08T10:04:14.933Z,71.90
2022-11-08T10:07:22.286Z,72.29
2022-11-08T10:10:12.190Z,72.03
2022-11-08T10:12:56.937Z,72.75
2022-11-08T10:15:54.155Z,72.11
2022-11-08T10:18:51.929Z,70.80
2022-11-08T10:21:42.507Z,72.37
2022-11-08T10:24:35.769Z,69.72
2022-11-08T10:27:11.159Z,69.49
2022-11-08T10:29:43.857Z,69.77
2022-11-08T10:32:22.495Z,69.37
2022-11-08T10:35:04.297Z,68.41
2022-11-08T10:37:34.307Z,68.56
2022-11-08T10:40:24.824Z,67.48
2022-11-08T10:43:09.510Z,65.35
2022-11-08T10:45:37.176Z,66.00
2022-11-08T10:48:05.402Z,63.46
2022-11-08T10:50:44.955Z,65.39
2022-11-08T10:53:28.712Z,64.68
2022-11-08T10:56:02.083Z,65.29
2022-11-08T10:58:39.534Z,61.61
2022-11-08T11:01:19.691Z,63.90
2022-11-08T11:03:48.871Z,61.93
2022-11-08T11:06:30.301Z,59.96
2022-11-08T11:09:06.612Z,59.04
2022-11-08T11:11:33.933Z,58.32
2022-11-08T11:14:22.138Z,57.51
2022-11-08T11:17:12.993Z,60.16
2022-11-08T11:19:51.748Z,59.05
2022-11-08T11:22:31.050Z,59.61
2022-11-08T11:25:23.664Z,61.97
2022-11-08T11:27:59.703Z,59.99
2022-11-08T11:30:30.427Z,60.18
2022-11-08T11:33:08.966Z,58.65
2022-11-08T11:35:50.566Z,58.12
2022-11-08T11:38:31.723Z,59.37
2022-11-08T11:41:11.075Z,59.10
2022-11-08T11:43:56.307Z,60.55
2022-11-08T11:46:41.609Z,59.95
2022-11-08T11:49:19.506Z,57.56
2022-11-08T11:51:46.933Z,57.70
2022-11-08T11:54:16.314Z,58.30
2022-11-08T11:57:31.540Z,58.95
2022-11-08T12:00:09.801Z,56.63
2022-11-08T12:03:08.052Z,59.27
2022-11-08T12:06:06.281Z,57.89
2022-11-08T12:09:04.138Z,57.86
2022-11-08T12:11:49.292Z,57.69
2022-11-08T12:14:34.403Z,56.26
2022-11-08T12:17:30.452Z,56.86
2022-11-08T12:20:38.554Z,56.50
2022-11-08T12:23:36.118Z,55.70
2022-11-08T12:26:15.221Z,56.04
2022-11-08T12:29:14.536Z,55.51
2022-11-08T12:31:52.967Z,55.57
2022-11-08T12:34:46.885Z,54.28
2022-11-08T12:37:41.900Z,54.38
2022-11-08T12:40:52.193Z,52.97
2022-11-08T12:43:41.140Z,53.41
2022-11-08T12:46:18.627Z,53.63
2022-11-08T12:49:31.496Z,54.69
2022-11-08T12:52:39.379Z,53.54
2022-11-08T12:55:19.761Z,53.46
2022-11-08T12:57:47.529Z,54.07
2022-11-08T13:00:19.203Z,53.47
2022-11-08T13:03:16.159Z,53.45
2022-11-08T13:06:34.394Z,54.20
2022-11-08T13:09:32.657Z,52.77
2022-11-08T13:12:25.339Z,52.92
2022-11-08T13:14:52.511Z,53.40
2022-11-08T13:17:25.050Z,52.53
2022-11-08T13:19:53.004Z,54.04
2022-11-08T13:22:29.355Z,52.12
2022-11-08T13:25:02.376Z,52.67
2022-11-08T13:27:42.554Z,53.01
2022-11-08T13:30:13.934Z,53.12
2022-11-08T13:32:58.087Z,53.95
2022-11-08T13:35:46.236Z,53.43
2022-11-08T13:39:06.280Z,53.81
2022-11-08T13:42:16.114Z,53.63
2022-11-08T13:44:55.191Z,53.19
2022-11-08T13:47:34.695Z,53.73
2022-11-08T13:50:29.591Z,54.38
2022-11-08T13:53:05.135Z,55.06
2022-11-08T13:56:04.749Z,54.19
2022-11-08T13:58:38.299Z,53.75
2022-11-08T14:01:24.050Z,54.92
2022-11-08T14:03:50.928Z,55.12
2022-11-08T14:07:22.209Z,54.13
2022-11-08T14:10:07.712Z,57.72
2022-11-08T14:13:07.545Z,57.73
2022-11-08T14:15:46.574Z,57.97
2022-11-08T14:18:30.158Z,57.85
2022-11-08T14:20:57.799Z,59.40
2022-11-08T14:23:38.078Z,59.95
2022-11-08T14:26:24.077Z,59.25
2022-11-08T14:28:53.355Z,60.50
2022-11-08T14:31:32.025Z,59.52
2022-11-08T14:34:00.827Z,60.87
2022-11-08T14:36:32.135Z,60.09
2022-11-08T14:39:18.055Z,60.55
2022-11-08T14:41:55.542Z,61.78
2022-11-08T14:44:23.496Z,62.02
2022-11-08T14:46:51.545Z,61.50
2022-11-08T14:49:30.859Z,61.36
2022-11-08T14:52:23.113Z,61.00
2022-11-08T14:57:51.102Z,63.94
2022-11-08T15:00:22.468Z,63.20
2022-11-08T15:03:04.153Z,62.72
2022-11-08T15:05:47.940Z,63.67
2022-11-08T15:08:48.152Z,62.23
2022-11-08T15:11:32.927Z,63.09
2022-11-08T15:14:10.788Z,62.91
2022-11-08T15:19:43.059Z,63.90
2022-11-08T15:22:32.176Z,63.90
2022-11-08T15:25:14.698Z,62.66
2022-11-08T15:27:55.500Z,63.23
2022-11-08T15:30:26.207Z,63.42
2022-11-08T15:32:53.219Z,63.32
2022-11-08T15:35:26.275Z,62.76
2022-11-08T15:38:05.001Z,62.71
2022-11-08T15:40:36.172Z,62.25
2022-11-08T15:43:03.742Z,63.16
2022-11-08T15:45:35.234Z,62.80
2022-11-08T15:48:20.856Z,61.61
2022-11-08T15:50:48.428Z,62.99
2022-11-08T15:53:16.129Z,65.83
2022-11-08T15:55:59.098Z,67.29
2022-11-08T15:58:28.851Z,66.68
2022-11-08T16:00:58.659Z,66.77
2022-11-08T16:03:26.135Z,66.80
2022-11-08T16:05:53.741Z,66.89
2022-11-08T16:08:20.893Z,66.68
2022-11-08T16:10:52.746Z,66.30
2022-11-08T16:13:28.023Z,66.26
2022-11-08T16:15:57.072Z,66.75
2022-11-08T16:18:24.974Z,67.70
2022-11-08T16:20:52.091Z,66.35
2022-11-08T16:23:19.215Z,66.15
2022-11-08T16:25:50.564Z,66.54
2022-11-08T16:28:38.368Z,66.22
2022-11-08T16:31:17.910Z,66.14
2022-11-08T16:33:47.162Z,66.27
2022-11-08T16:36:23.952Z,68.24
2022-11-08T16:38:57.443Z,68.24
2022-11-08T16:41:26.002Z,67.45
2022-11-08T16:43:53.339Z,67.63
2022-11-08T16:46:21.943Z,68.88
2022-11-08T16:48:57.049Z,69.12
2022-11-08T16:51:25.980Z,69.97
2022-11-08T16:53:53.979Z,71.28
2022-11-08T16:56:21.415Z,70.94
2022-11-08T16:58:48.752Z,70.79
2022-11-08T17:01:23.326Z,70.40
2022-11-08T17:03:50.415Z,71.39
2022-11-08T17:06:18.960Z,71.38
2022-11-08T17:08:46.844Z,71.37
2022-11-08T17:11:23.693Z,69.39
2022-11-08T17:13:52.617Z,68.74
2022-11-08T17:16:20.235Z,69.87
2022-11-08T17:18:52.526Z,71.31
2022-11-08T17:24:08.404Z,70.45
2022-11-08T17:26:35.428Z,71.62
2022-11-08T17:29:02.430Z,70.40
2022-11-08T17:31:29.373Z,70.14
2022-11-08T17:33:56.384Z,69.66
2022-11-08T17:36:24.005Z,70.93
2022-11-08T17:38:51.069Z,70.55
2022-11-08T17:41:18.306Z,70.43
2022-11-08T17:43:45.751Z,69.30
2022-11-08T17:46:15.875Z,69.16
2022-11-08T17:48:43.065Z,68.89
2022-11-08T17:51:11.986Z,69.28
2022-11-08T17:53:39.003Z,67.94
2022-11-08T17:56:06.972Z,69.30
2022-11-08T17:58:34.455Z,68.92
2022-11-08T18:01:05.449Z,69.33
2022-11-08T18:03:33.756Z,71.33
2022-11-08T18:06:11.542Z,71.97
2022-11-08T18:08:38.864Z,69.80
2022-11-08T18:11:06.360Z,71.05
2022-11-08T18:13:35.207Z,70.91
2022-11-08T18:16:11.658Z,72.08
2022-11-08T18:18:39.196Z,71.77
2022-11-08T18:21:07.902Z,72.42
2022-11-08T18:23:35.527Z,70.31
2022-11-08T18:26:03.156Z,71.56
2022-11-08T18:28:30.723Z,72.51
2022-11-08T18:31:10.443Z,71.93
2022-11-08T18:33:38.559Z,71.69
2022-11-08T18:36:18.040Z,70.79
2022-11-08T18:38:46.248Z,71.95
2022-11-08T18:41:18.030Z,71.93
2022-11-08T18:43:45.466Z,71.34
2022-11-08T18:46:16.539Z,71.26
2022-11-08T18:48:44.194Z,70.70
2022-11-08T18:51:14.252Z,71.38
2022-11-08T18:53:42.452Z,70.78
2022-11-08T18:56:11.756Z,71.12
2022-11-08T18:58:39.765Z,71.91
2022-11-08T19:01:07.876Z,72.28
2022-11-08T19:03:35.573Z,73.62
2022-11-08T19:06:02.640Z,72.79
2022-11-08T19:08:31.151Z,70.77
2022-11-08T19:11:02.933Z,73.71
2022-11-08T19:13:32.263Z,74.24
2022-11-08T19:16:10.146Z,72.11
2022-11-08T19:18:37.890Z,74.27
2022-11-08T19:21:14.658Z,73.95
2022-11-08T19:23:42.389Z,72.89
2022-11-08T19:26:16.431Z,72.69
2022-11-08T19:28:45.658Z,72.06
2022-11-08T19:31:15.724Z,72.00
2022-11-08T19:33:42.928Z,72.53
2022-11-08T19:36:15.334Z,71.89
2022-11-08T19:38:44.263Z,72.14
2022-11-08T19:41:17.237Z,73.14
2022-11-08T19:43:45.415Z,73.21
2022-11-08T19:46:19.383Z,73.82
2022-11-08T19:48:49.473Z,75.05
2022-11-08T19:51:24.912Z,74.19
2022-11-08T19:54:05.404Z,75.35
2022-11-08T19:57:02.506Z,73.80
2022-11-08T19:59:21.404Z,74.22
2022-11-08T20:01:48.597Z,73.37
2022-11-08T20:04:15.821Z,75.77
2022-11-08T20:06:42.941Z,72.85
2022-11-08T20:09:11.516Z,74.13
2022-11-08T20:11:41.057Z,75.23
2022-11-08T20:14:12.054Z,73.47
2022-11-08T20:16:42.855Z,73.53
2022-11-08T20:19:13.776Z,72.52
2022-11-08T20:21:42.484Z,73.03
2022-11-08T20:24:11.574Z,73.19
2022-11-08T20:26:41.241Z,75.05
2022-11-08T20:29:08.770Z,73.48
2022-11-08T20:31:36.414Z,74.77
2022-11-08T20:34:06.042Z,72.36
2022-11-08T20:36:35.467Z,72.80
2022-11-08T20:39:06.923Z,71.95
2022-11-08T20:41:37.122Z,73.20
2022-11-08T20:44:05.840Z,72.69
2022-11-08T20:46:34.101Z,73.36
2022-11-08T20:49:01.820Z,74.58
2022-11-08T20:51:30.823Z,75.22
2022-11-08T20:54:00.199Z,74.27
2022-11-08T20:56:28.901Z,74.93
2022-11-08T20:58:56.409Z,76.90
2022-11-08T21:01:27.977Z,74.95
2022-11-08T21:03:56.051Z,76.29
2022-11-08T21:06:25.888Z,74.50
2022-11-08T21:11:40.574Z,74.77
2022-11-08T21:14:07.498Z,75.34
2022-11-08T21:16:53.209Z,74.72
2022-11-08T21:19:23.220Z,75.71
2022-11-08T21:21:50.207Z,75.78
2022-11-08T21:24:17.416Z,75.25
2022-11-08T21:26:44.437Z,75.24
2022-11-08T21:29:11.581Z,74.28
2022-11-08T21:31:38.499Z,75.32
2022-11-08T21:34:05.411Z,73.17
2022-11-08T21:36:32.890Z,73.26
2022-11-08T21:38:59.912Z,73.28
2022-11-08T21:41:26.869Z,74.18
2022-11-08T21:43:53.783Z,74.99
2022-11-08T21:46:26.469Z,74.18
2022-11-08T21:49:00.033Z,73.60
2022-11-08T21:51:30.670Z,74.34
2022-11-08T21:53:59.202Z,72.51
2022-11-08T21:56:31.176Z,74.66
2022-11-08T21:58:58.224Z,73.88
2022-11-08T22:01:29.989Z,75.29
2022-11-08T22:04:00.935Z,73.30
2022-11-08T22:06:28.446Z,74.26
2022-11-08T22:08:56.084Z,73.79
2022-11-08T22:11:23.218Z,73.46
2022-11-08T22:13:50.162Z,74.63
2022-11-08T22:16:17.430Z,74.07
2022-11-08T22:21:38.810Z,75.20
2022-11-08T22:24:11.249Z,74.41
2022-11-08T22:26:40.405Z,74.00
2022-11-08T22:29:07.959Z,74.23
2022-11-08T22:31:35.599Z,75.27
2022-11-08T22:34:03.594Z,74.81
2022-11-08T22:36:30.580Z,74.83
2022-11-08T22:38:57.771Z,74.47
2022-11-08T22:41:25.210Z,76.18
2022-11-08T22:43:52.738Z,76.80
2022-11-08T22:46:20.555Z,73.90
2022-11-08T22:48:47.811Z,75.87
2022-11-08T22:51:15.311Z,75.03
2022-11-08T22:53:43.386Z,76.58
2022-11-08T22:56:11.844Z,76.74
2022-11-08T22:58:39.614Z,76.25
2022-11-08T23:01:10.962Z,77.32
2022-11-08T23:03:37.983Z,75.34
2022-11-08T23:06:05.494Z,75.49
2022-11-08T23:08:32.969Z,78.00
2022-11-08T23:11:19.861Z,76.44
2022-11-08T23:14:05.989Z,76.35
2022-11-08T23:16:38.161Z,76.42
2022-11-08T23:19:36.242Z,77.50
2022-11-08T23:22:24.579Z,76.67
2022-11-08T23:24:51.875Z,74.65
2022-11-08T23:27:38.607Z,73.70
2022-11-08T23:30:25.828Z,74.67
2022-11-08T23:32:53.234Z,76.70
2022-11-08T23:35:24.611Z,76.46
2022-11-08T23:37:52.130Z,75.10
2022-11-08T23:40:38.988Z,73.80
2022-11-08T23:43:37.130Z,74.72
2022-11-08T23:46:11.451Z,74.90
2022-11-08T23:48:40.278Z,75.90
2022-11-08T23:51:08.169Z,74.59
2022-11-08T23:53:37.135Z,76.14
2022-11-08T23:56:05.778Z,74.77
2022-11-08T23:58:33.445Z,77.67
